<?xml version="1.0" encoding="UTF-8" standalone="no" ?>
<gpx xmlns="http://www.topografix.com/GPX/1/1" xmlns:xsi="http://www.w3.org/2001/XMLSchema-instance" xsi:schemaLocation="http://www.topografix.com/GPX/1/1 http://www.topografix.com/GPX/1/1/gpx.xsd" version="1.1" creator="VisuGPX - https://www.visugpx.com">
  <metadata>
    <name>Redon_Chateaulin</name>
    <desc><![CDATA[Randonnée cyclotouriste de Redon à Châteaulin par le chemin de halage du canal de Nantes à Brest avec quelques échappées vers Rostrenen, Carhaix et Pleyben.]]></desc>
  </metadata>
  <trk>
    <name><![CDATA[ACTIVE LOG 009]]></name>
    <trkseg>
      <trkpt lat="48.23153" lon="-3.29811">
        <ele>208.74340820312</ele>
        <time>2012-04-17T15:57:41Z</time>
      </trkpt>
      <trkpt lat="48.23152" lon="-3.29812">
        <ele>206.82067871094</ele>
        <time>2012-04-17T15:57:50Z</time>
      </trkpt>
      <trkpt lat="48.23165" lon="-3.29826">
        <ele>206.82067871094</ele>
        <time>2012-04-17T15:57:58Z</time>
      </trkpt>
      <trkpt lat="48.23165" lon="-3.29836">
        <ele>207.78210449219</ele>
        <time>2012-04-17T15:58:02Z</time>
      </trkpt>
      <trkpt lat="48.23161" lon="-3.29852">
        <ele>210.18542480469</ele>
        <time>2012-04-17T15:58:10Z</time>
      </trkpt>
      <trkpt lat="48.23173" lon="-3.29863">
        <ele>210.666015625</ele>
        <time>2012-04-17T15:58:18Z</time>
      </trkpt>
      <trkpt lat="48.2318" lon="-3.29872">
        <ele>210.666015625</ele>
        <time>2012-04-17T15:58:22Z</time>
      </trkpt>
      <trkpt lat="48.23176" lon="-3.2989">
        <ele>210.18542480469</ele>
        <time>2012-04-17T15:58:28Z</time>
      </trkpt>
      <trkpt lat="48.23141" lon="-3.29926">
        <ele>211.62744140625</ele>
        <time>2012-04-17T15:58:45Z</time>
      </trkpt>
      <trkpt lat="48.23114" lon="-3.29967">
        <ele>214.99194335938</ele>
        <time>2012-04-17T15:58:58Z</time>
      </trkpt>
      <trkpt lat="48.23093" lon="-3.29995">
        <ele>220.75988769531</ele>
        <time>2012-04-17T15:59:12Z</time>
      </trkpt>
      <trkpt lat="48.23061" lon="-3.30032">
        <ele>229.41174316406</ele>
        <time>2012-04-17T15:59:33Z</time>
      </trkpt>
      <trkpt lat="48.23036" lon="-3.3008">
        <ele>232.29577636719</ele>
        <time>2012-04-17T15:59:53Z</time>
      </trkpt>
      <trkpt lat="48.23031" lon="-3.30146">
        <ele>233.73767089844</ele>
        <time>2012-04-17T16:00:13Z</time>
      </trkpt>
      <trkpt lat="48.23043" lon="-3.30202">
        <ele>232.29577636719</ele>
        <time>2012-04-17T16:00:27Z</time>
      </trkpt>
      <trkpt lat="48.2305" lon="-3.30278">
        <ele>231.33435058594</ele>
        <time>2012-04-17T16:00:49Z</time>
      </trkpt>
      <trkpt lat="48.23049" lon="-3.30282">
        <ele>231.33435058594</ele>
        <time>2012-04-17T16:00:51Z</time>
      </trkpt>
      <trkpt lat="48.2305" lon="-3.30285">
        <ele>231.81494140625</ele>
        <time>2012-04-17T16:01:13Z</time>
      </trkpt>
      <trkpt lat="48.23066" lon="-3.30307">
        <ele>231.33435058594</ele>
        <time>2012-04-17T16:01:27Z</time>
      </trkpt>
      <trkpt lat="48.23138" lon="-3.30344">
        <ele>229.89233398438</ele>
        <time>2012-04-17T16:01:45Z</time>
      </trkpt>
      <trkpt lat="48.23236" lon="-3.3038">
        <ele>230.373046875</ele>
        <time>2012-04-17T16:02:06Z</time>
      </trkpt>
      <trkpt lat="48.23248" lon="-3.30385">
        <ele>229.89233398438</ele>
        <time>2012-04-17T16:02:09Z</time>
      </trkpt>
      <trkpt lat="48.23276" lon="-3.30446">
        <ele>230.373046875</ele>
        <time>2012-04-17T16:02:22Z</time>
      </trkpt>
      <trkpt lat="48.23269" lon="-3.3054">
        <ele>231.33435058594</ele>
        <time>2012-04-17T16:02:37Z</time>
      </trkpt>
      <trkpt lat="48.23271" lon="-3.30566">
        <ele>230.85375976562</ele>
        <time>2012-04-17T16:02:42Z</time>
      </trkpt>
      <trkpt lat="48.23283" lon="-3.30628">
        <ele>231.33435058594</ele>
        <time>2012-04-17T16:02:52Z</time>
      </trkpt>
      <trkpt lat="48.23298" lon="-3.30673">
        <ele>231.81494140625</ele>
        <time>2012-04-17T16:03:01Z</time>
      </trkpt>
      <trkpt lat="48.23316" lon="-3.3074">
        <ele>232.77648925781</ele>
        <time>2012-04-17T16:03:17Z</time>
      </trkpt>
      <trkpt lat="48.2333" lon="-3.30911">
        <ele>232.77648925781</ele>
        <time>2012-04-17T16:03:44Z</time>
      </trkpt>
      <trkpt lat="48.23367" lon="-3.30973">
        <ele>233.25708007812</ele>
        <time>2012-04-17T16:03:59Z</time>
      </trkpt>
      <trkpt lat="48.23427" lon="-3.30978">
        <ele>234.69909667969</ele>
        <time>2012-04-17T16:04:14Z</time>
      </trkpt>
      <trkpt lat="48.23503" lon="-3.30994">
        <ele>234.69909667969</ele>
        <time>2012-04-17T16:04:34Z</time>
      </trkpt>
      <trkpt lat="48.23583" lon="-3.31034">
        <ele>232.29577636719</ele>
        <time>2012-04-17T16:04:55Z</time>
      </trkpt>
      <trkpt lat="48.23586" lon="-3.31037">
        <ele>232.29577636719</ele>
        <time>2012-04-17T16:04:56Z</time>
      </trkpt>
      <trkpt lat="48.23603" lon="-3.31049">
        <ele>231.81494140625</ele>
        <time>2012-04-17T16:05:00Z</time>
      </trkpt>
      <trkpt lat="48.23669" lon="-3.3109">
        <ele>229.89233398438</ele>
        <time>2012-04-17T16:05:18Z</time>
      </trkpt>
      <trkpt lat="48.23679" lon="-3.31095">
        <ele>230.373046875</ele>
        <time>2012-04-17T16:05:23Z</time>
      </trkpt>
      <trkpt lat="48.2367" lon="-3.31147">
        <ele>228.93115234375</ele>
        <time>2012-04-17T16:05:35Z</time>
      </trkpt>
      <trkpt lat="48.23646" lon="-3.31281">
        <ele>225.56652832031</ele>
        <time>2012-04-17T16:05:57Z</time>
      </trkpt>
      <trkpt lat="48.2363" lon="-3.31368">
        <ele>223.16320800781</ele>
        <time>2012-04-17T16:06:12Z</time>
      </trkpt>
      <trkpt lat="48.23611" lon="-3.31484">
        <ele>220.75988769531</ele>
        <time>2012-04-17T16:06:29Z</time>
      </trkpt>
      <trkpt lat="48.23592" lon="-3.31595">
        <ele>217.39538574219</ele>
        <time>2012-04-17T16:06:46Z</time>
      </trkpt>
      <trkpt lat="48.23579" lon="-3.31695">
        <ele>213.0693359375</ele>
        <time>2012-04-17T16:07:01Z</time>
      </trkpt>
      <trkpt lat="48.23586" lon="-3.31731">
        <ele>214.99194335938</ele>
        <time>2012-04-17T16:07:12Z</time>
      </trkpt>
      <trkpt lat="48.23586" lon="-3.31731">
        <ele>214.51123046875</ele>
        <time>2012-04-17T16:07:14Z</time>
      </trkpt>
      <trkpt lat="48.23597" lon="-3.31773">
        <ele>213.55004882812</ele>
        <time>2012-04-17T16:07:19Z</time>
      </trkpt>
      <trkpt lat="48.23596" lon="-3.31783">
        <ele>213.0693359375</ele>
        <time>2012-04-17T16:07:21Z</time>
      </trkpt>
      <trkpt lat="48.23598" lon="-3.31826">
        <ele>211.62744140625</ele>
        <time>2012-04-17T16:07:27Z</time>
      </trkpt>
      <trkpt lat="48.23577" lon="-3.31951">
        <ele>209.22412109375</ele>
        <time>2012-04-17T16:07:46Z</time>
      </trkpt>
      <trkpt lat="48.2355" lon="-3.31968">
        <ele>207.78210449219</ele>
        <time>2012-04-17T16:07:56Z</time>
      </trkpt>
      <trkpt lat="48.23502" lon="-3.31985">
        <ele>206.34008789062</ele>
        <time>2012-04-17T16:08:12Z</time>
      </trkpt>
      <trkpt lat="48.23499" lon="-3.31985">
        <ele>206.34008789062</ele>
        <time>2012-04-17T16:08:26Z</time>
      </trkpt>
      <trkpt lat="48.23499" lon="-3.31985">
        <ele>206.82067871094</ele>
        <time>2012-04-17T16:08:41Z</time>
      </trkpt>
      <trkpt lat="48.23499" lon="-3.31985">
        <ele>207.30139160156</ele>
        <time>2012-04-17T16:08:57Z</time>
      </trkpt>
      <trkpt lat="48.23499" lon="-3.31985">
        <ele>207.78210449219</ele>
        <time>2012-04-17T16:09:24Z</time>
      </trkpt>
      <trkpt lat="48.23499" lon="-3.31985">
        <ele>207.30139160156</ele>
        <time>2012-04-17T16:09:25Z</time>
      </trkpt>
      <trkpt lat="48.23506" lon="-3.31985">
        <ele>207.30139160156</ele>
        <time>2012-04-17T16:09:34Z</time>
      </trkpt>
      <trkpt lat="48.23506" lon="-3.31985">
        <ele>205.85949707031</ele>
        <time>2012-04-17T16:10:06Z</time>
      </trkpt>
      <trkpt lat="48.23506" lon="-3.31985">
        <ele>205.85949707031</ele>
        <time>2012-04-17T16:10:17Z</time>
      </trkpt>
    </trkseg>
  </trk>
</gpx>